Latest Weather Observations for Bridgetown

IDW60801

Issued at 10:32 pm WST Monday 2 March 2015 (issued every 30 minutes, with the page automatically refreshed every 10 minutes)

About weather observations | Map of weather stations | Latest weather observations for WA | Other Formats
Station Details ID: 009617 Name: BRIDGETOWN Lat: -33.95 Lon: 116.13 Height: 178.66 m
Data from the previous 72 hours. | See also: Recent months at Bridgetown
Date/Time
WST
Temp
°C
App
Temp
°C
Dew
Point
Rel
Hum
%
Delta-T
°C
Wind Press
QNH
hPa
Press
MSL
hPa
Rain
since 9 am
mm
Dir
 
Spd
km/h
Gust
km/h
Spd
kts
Gust
kts
02/10:30pm 14.5 12.2 8.9 69 2.9 S 11 17 6 9 1022.6 1022.1 0.0
02/10:00pm 14.7 12.8 9.1 69 2.9 SSE 9 17 5 9 1022.5 1022.0 0.0
02/09:30pm 15.0 13.2 9.4 69 2.9 SSE 9 15 5 8 1022.3 1021.8 0.0
02/09:00pm 15.5 13.7 9.6 68 3.1 SSE 9 15 5 8 1021.9 1021.4 0.0
02/08:30pm 16.1 14.4 9.8 66 3.3 SSE 9 15 5 8 1021.6 1021.0 0.0
02/08:00pm 16.5 14.4 9.9 65 3.5 SE 11 22 6 12 1021.2 1020.6 0.0
02/07:30pm 17.1 14.7 10.2 64 3.7 SE 13 24 7 13 1020.7 1020.1 0.0
02/07:00pm 17.4 15.1 10.5 64 3.7 SE 13 20 7 11 1020.2 1019.7 0.0
02/06:30pm 17.9 14.9 10.8 63 3.9 SSE 17 28 9 15 1019.9 1019.4 0.0
02/06:00pm 18.1 15.6 11.2 64 3.8 SE 15 30 8 16 1019.7 1019.2 0.0
02/05:30pm 18.4 16.4 11.5 64 3.8 SE 13 22 7 12 1019.5 1019.0 0.0
02/05:00pm 18.8 16.1 11.6 63 4.0 SSE 17 26 9 14 1019.1 1018.6 0.0
02/04:30pm 19.6 17.3 11.6 60 4.4 SSE 15 28 8 15 1018.7 1018.2 0.0
02/04:00pm 20.3 18.0 11.8 58 4.8 SE 15 30 8 16 1018.3 1017.8 0.0
02/03:30pm 21.4 19.0 11.4 53 5.6 SSE 15 26 8 14 1018.0 1017.5 0.0
02/03:00pm 21.4 18.9 11.1 52 5.7 SE 15 26 8 14 1018.1 1017.6 0.0
02/02:30pm 21.9 19.0 11.0 50 6.1 SSE 17 28 9 15 1018.2 1017.7 0.0
02/02:00pm 21.1 18.8 10.6 51 5.8 SE 13 24 7 13 1018.6 1018.1 0.0
02/01:30pm 22.3 19.7 10.8 48 6.4 SE 15 26 8 14 1018.4 1017.9 0.0
02/01:00pm 20.6 17.7 11.0 54 5.3 SE 17 32 9 17 1018.6 1018.1 0.0
02/12:30pm 20.8 17.8 10.6 52 5.6 SSE 17 32 9 17 1018.4 1017.9 0.0
02/12:00pm 20.9 17.9 10.7 52 5.6 SE 17 24 9 13 1018.5 1018.0 0.0
02/11:30am 20.5 17.9 10.6 53 5.4 SE 15 26 8 14 1018.6 1018.1 0.0
02/11:00am 20.5 17.5 10.6 53 5.4 SSE 17 24 9 13 1018.8 1018.3 0.0
02/10:30am 19.8 17.5 10.5 55 5.1 ESE 13 24 7 13 1019.1 1018.6 0.0
02/10:00am 19.1 16.0 10.4 57 4.7 SE 17 35 9 19 1019.0 1018.5 0.0
02/09:30am 18.3 15.2 10.4 60 4.3 ESE 17 28 9 15 1019.0 1018.5 0.0
02/09:00am 18.5 15.0 10.1 58 4.5 SE 19 32 10 17 1019.0 1018.5 0.0
02/08:30am 17.9 14.8 10.3 61 4.1 SE 17 28 9 15 1019.1 1018.6 0.0
02/08:00am 17.1 14.4 10.5 65 3.5 SE 15 22 8 12 1019.0 1018.5 0.0
02/07:30am 16.3 14.3 10.2 67 3.2 SE 11 19 6 10 1018.8 1018.3 0.0
02/07:00am 15.5 14.2 10.1 70 2.8 SE 7 15 4 8 1018.5 1018.0 0.0
02/06:30am 15.4 13.2 9.5 68 3.1 SSE 11 17 6 9 1018.2 1017.7 0.0
02/06:00am 15.2 12.9 9.1 67 3.1 SSE 11 19 6 10 1017.6 1017.1 0.0
02/05:30am 15.1 13.5 8.8 66 3.2 SSE 7 13 4 7 1017.3 1016.8 0.0
02/05:00am 15.0 13.4 8.7 66 3.2 S 7 11 4 6 1017.3 1016.8 0.0
02/04:30am 15.2 13.6 8.9 66 3.2 S 7 11 4 6 1016.8 1016.3 0.0
02/04:00am 15.1 13.5 8.8 66 3.2 SSE 7 13 4 7 1016.3 1015.7 0.0
02/03:30am 15.2 13.3 8.9 66 3.2 SSE 9 13 5 7 1016.2 1015.6 0.0
02/03:00am 15.4 13.1 9.1 66 3.3 SSE 11 19 6 10 1016.2 1015.6 0.0
02/02:30am 15.8 13.6 9.2 65 3.4 SSE 11 24 6 13 1016.4 1015.8 0.0
02/02:00am 15.6 13.4 9.5 67 3.2 SE 11 19 6 10 1016.4 1015.8 0.0
02/01:30am 16.1 14.0 9.8 66 3.3 SSE 11 20 6 11 1016.3 1015.7 0.0
02/01:00am 16.2 13.3 9.8 66 3.4 SE 15 26 8 14 1016.4 1015.8 0.0
02/12:30am 16.3 13.4 9.7 65 3.5 SE 15 26 8 14 1016.7 1016.1 0.0
02/12:00am 16.4 13.5 9.8 65 3.5 SE 15 26 8 14 1017.1 1016.6 0.0
 
Date/Time
WST
Temp
°C
App
Temp
°C
Dew
Point
Rel
Hum
%
Delta-T
°C
Wind Press
QNH
hPa
Press
MSL
hPa
Rain
since 9 am
mm
Dir
 
Spd
km/h
Gust
km/h
Spd
kts
Gust
kts
01/11:30pm 16.4 12.7 9.6 64 3.6 SE 19 35 10 19 1017.0 1016.5 0.0
01/11:00pm 16.4 12.7 9.3 63 3.7 SE 19 30 10 16 1016.8 1016.3 0.0
01/10:30pm 16.5 13.5 9.4 63 3.7 SE 15 26 8 14 1016.5 1015.9 0.0
01/10:00pm 16.7 13.4 9.4 62 3.8 SSE 17 26 9 14 1016.6 1016.0 0.0
01/09:30pm 16.8 13.9 9.7 63 3.8 SSE 15 28 8 15 1016.3 1015.7 0.0
01/09:00pm 16.9 14.0 9.8 63 3.8 SSE 15 26 8 14 1015.9 1015.3 0.0
01/08:30pm 17.0 12.8 9.9 63 3.8 SE 22 39 12 21 1015.5 1014.9 0.0
01/08:00pm 17.2 14.2 10.6 65 3.6 SE 17 30 9 16 1015.2 1014.6 0.0
01/07:30pm 17.3 14.0 10.9 66 3.5 SE 19 30 10 16 1014.8 1014.2 0.0
01/07:00pm 17.5 13.6 10.9 65 3.6 SSE 22 43 12 23 1014.1 1013.6 0.0
01/06:30pm 17.9 15.1 11.2 65 3.7 SE 17 28 9 15 1013.8 1013.3 0.0
01/06:00pm 18.4 15.4 11.9 66 3.6 SSE 19 35 10 19 1013.6 1013.1 0.0
01/05:30pm 19.0 16.0 12.0 64 3.9 SE 19 35 10 19 1013.1 1012.6 0.0
01/05:00pm 19.7 16.3 12.5 63 4.1 SSE 22 37 12 20 1012.7 1012.2 0.0
01/04:30pm 20.9 17.5 12.6 59 4.7 SSE 22 33 12 18 1012.4 1011.9 0.0
01/04:00pm 21.6 18.0 13.0 58 5.0 SSE 24 37 13 20 1012.1 1011.6 0.0
01/03:30pm 23.8 21.1 12.8 50 6.4 SSE 19 28 10 15 1011.5 1010.9 0.0
01/03:00pm 25.0 22.6 12.6 46 7.2 SE 17 30 9 16 1011.0 1010.4 0.0
01/02:30pm 24.8 21.5 12.7 47 7.0 SSE 22 32 12 17 1011.0 1010.4 0.0
01/02:00pm 24.7 22.1 12.0 45 7.3 SSE 17 28 9 15 1011.4 1010.8 0.0
01/01:30pm 26.7 25.1 11.6 39 8.7 SE 11 24 6 13 1011.5 1010.9 0.0
01/01:00pm 25.4 23.4 11.6 42 7.9 S 13 20 7 11 1011.8 1011.2 0.0
01/12:30pm 25.5 23.9 11.7 42 7.9 SE 11 22 6 12 1011.9 1011.4 0.0
01/12:00pm 25.0 22.9 11.2 42 7.8 E 13 22 7 12 1012.1 1011.6 0.0
01/11:30am 24.6 23.7 11.5 44 7.5 ESE 7 17 4 9 1013.0 1012.5 0.0
01/11:00am 23.6 22.1 12.0 48 6.6 ESE 11 20 6 11 1013.4 1012.9 0.0
01/10:30am 22.3 20.4 11.7 51 6.0 SE 13 24 7 13 1013.9 1013.4 0.0
01/10:00am 21.3 19.0 11.6 54 5.4 SE 15 24 8 13 1014.1 1013.6 0.0
01/09:30am 20.6 18.7 11.8 57 4.9 E 13 24 7 13 1014.8 1014.2 0.0
01/09:00am 18.7 16.5 10.8 60 4.3 SE 13 22 7 12 1015.1 1014.5 0.0
01/08:30am 17.0 15.1 10.4 65 3.5 SE 11 19 6 10 1015.3 1014.7 0.0
01/08:00am 15.9 13.9 10.0 68 3.1 SE 11 22 6 12 1015.8 1015.2 0.0
01/07:30am 14.6 13.0 10.2 75 2.3 SSE 9 17 5 9 1016.0 1015.3 0.0
01/07:00am 12.6 11.3 9.8 83 1.4 S 7 13 4 7 1016.0 1015.3 0.0
01/06:30am 11.6 9.9 9.7 88 1.0 S 9 13 5 7 1015.9 1015.2 0.0
01/06:00am 11.8 10.4 9.7 87 1.1 S 7 11 4 6 1015.7 1015.0 0.0
01/05:30am 11.7 10.8 9.3 85 1.2 SSE 4 9 2 5 1015.6 1014.9 0.0
01/05:00am 11.8 10.4 9.0 83 1.4 SSE 6 9 3 5 1015.6 1014.9 0.0
01/04:30am 11.9 10.4 8.6 80 1.7 S 6 7 3 4 1015.7 1015.0 0.0
01/04:00am 12.2 10.7 8.3 77 1.9 S 6 7 3 4 1015.6 1014.9 0.0
01/03:30am 12.6 11.1 8.3 75 2.1 SSE 6 7 3 4 1015.6 1014.9 0.0
01/03:00am 12.7 11.5 8.2 74 2.2 S 4 6 2 3 1015.7 1015.0 0.0
01/02:30am 12.8 11.6 7.9 72 2.4 SSE 4 7 2 4 1015.6 1014.9 0.0
01/02:00am 13.1 12.3 8.0 71 2.5 SE 2 7 1 4 1015.6 1014.9 0.0
01/01:30am 13.5 12.3 7.9 69 2.8 ESE 4 9 2 5 1015.8 1015.1 0.0
01/01:00am 13.8 12.2 8.0 68 2.9 ESE 6 9 3 5 1015.9 1015.2 0.0
01/12:30am 14.1 12.5 8.1 67 3.0 ESE 6 9 3 5 1016.2 1015.5 0.0
01/12:00am 14.4 12.8 7.9 65 3.3 SE 6 15 3 8 1016.5 1015.8 0.0
 
Date/Time
WST
Temp
°C
App
Temp
°C
Dew
Point
Rel
Hum
%
Delta-T
°C
Wind Press
QNH
hPa
Press
MSL
hPa
Rain
since 9 am
mm
Dir
 
Spd
km/h
Gust
km/h
Spd
kts
Gust
kts
28/11:30pm 15.0 13.2 8.0 63 3.5 SE 7 17 4 9 1016.5 1015.8 0.0
28/11:00pm 15.5 13.7 8.0 61 3.8 SE 7 15 4 8 1016.5 1015.8 0.0
28/10:30pm 16.3 14.3 8.5 60 4.0 ESE 9 19 5 10 1016.7 1016.0 0.0
28/10:00pm 17.1 14.7 8.5 57 4.4 SE 11 20 6 11 1016.6 1015.9 0.0
28/09:30pm 18.2 15.3 8.2 52 5.2 ESE 13 26 7 14 1016.7 1016.0 0.0
28/09:00pm 19.3 16.5 8.6 50 5.6 E 13 26 7 14 1016.4 1015.7 0.0
28/08:30pm 20.5 18.5 8.5 46 6.3 E 9 17 5 9 1015.9 1015.2 0.0
28/08:00pm 21.4 18.9 8.3 43 6.9 SE 11 20 6 11 1015.6 1014.9 0.0
28/07:30pm 22.2 20.3 7.6 39 7.7 ESE 7 19 4 10 1015.3 1014.6 0.0
28/07:00pm 22.7 20.4 7.3 37 8.0 E 9 13 5 7 1015.1 1014.4 0.0
28/06:30pm 23.8 21.0 7.0 34 8.8 ENE 11 17 6 9 1014.9 1014.2 0.0
28/06:00pm 24.7 22.3 6.9 32 9.3 ENE 9 17 5 9 1014.9 1014.2 0.0
28/05:30pm 25.3 22.4 6.5 30 9.8 E 11 19 6 10 1014.9 1014.2 0.0
28/05:00pm 25.7 23.0 5.8 28 10.3 ENE 9 15 5 8 1014.9 1014.2 0.0
28/04:30pm 25.6 22.6 5.8 28 10.3 ESE 11 17 6 9 1015.0 1014.3 0.0
28/04:00pm 25.8 22.8 5.9 28 10.3 E 11 20 6 11 1015.2 1014.5 0.0
28/03:30pm 26.0 23.1 6.6 29 10.2 ESE 11 24 6 13 1015.5 1014.8 0.0
28/03:00pm 25.4 22.9 6.6 30 9.9 SE 9 17 5 9 1015.8 1015.1 0.0
28/02:30pm 24.9 22.4 6.6 31 9.6 ESE 9 19 5 10 1016.2 1015.5 0.0
28/02:00pm 25.1 22.2 6.3 30 9.8 E 11 22 6 12 1016.6 1015.9 0.0
28/01:30pm 25.6 22.9 7.2 31 9.8 ESE 11 22 6 12 1016.9 1016.2 0.0
28/01:00pm 23.7 20.5 6.9 34 8.8 E 13 22 7 12 1017.4 1016.7 0.0
28/12:30pm 23.9 21.2 7.5 35 8.7 SE 11 20 6 11 1017.8 1017.1 0.0
28/12:00pm 23.4 20.6 7.1 35 8.5 SSE 11 22 6 12 1018.1 1017.4 0.0
28/11:30am 22.2 19.6 7.6 39 7.7 ESE 11 19 6 10 1018.6 1017.9 0.0
28/11:00am 22.2 19.7 8.0 40 7.5 ESE 11 20 6 11 1019.1 1018.4 0.0
28/10:30am 20.4 17.9 8.1 45 6.4 ESE 11 20 6 11 1019.5 1018.9 0.0
28/10:00am 20.4 17.8 9.3 49 5.9 SE 13 24 7 13 1019.7 1019.1 0.0
28/09:30am 18.9 15.6 9.7 55 4.9 SE 17 30 9 16 1019.8 1019.2 0.0
28/09:00am 18.0 14.3 9.6 58 4.4 SSE 19 30 10 16 1019.9 1019.3 0.0
28/08:30am 17.7 15.4 10.3 62 4.0 ESE 13 20 7 11 1019.8 1019.2 0.0
28/08:00am 16.7 14.7 11.4 71 2.9 SE 13 19 7 10 1019.7 1019.1 0.0
28/07:30am 14.5 14.5 13.5 94 0.6 SSE 6 9 3 5 1019.6 1019.0 0.0
28/07:00am 12.8 12.9 12.8 100 0.0 SSW 4 7 2 4 1019.0 1018.3 0.0
28/06:30am 9.8 9.8 9.8 100 0.0 CALM 0 0 0 0 1018.7 1018.0 0.0
28/06:00am 9.9 9.9 9.9 100 0.0 CALM 0 0 0 0 1018.3 1017.6 0.0
28/05:30am 10.7 10.9 10.7 100 0.0 CALM 0 0 0 0 1017.8 1017.1 0.0
28/05:00am 10.8 11.0 10.6 99 0.1 CALM 0 0 0 0 1017.5 1016.8 0.0
28/04:30am 11.2 11.5 11.0 99 0.1 CALM 0 0 0 0 1017.2 1016.5 0.0
28/04:00am 12.0 12.6 11.8 99 0.1 CALM 0 0 0 0 1016.9 1016.2 0.0
28/03:30am 12.9 13.4 12.7 99 0.1 E 2 6 1 3 1016.8 1016.1 0.0
28/03:00am 13.9 14.3 13.7 99 0.1 S 4 6 2 3 1016.6 1015.9 0.0
28/02:30am 13.6 14.3 13.4 99 0.1 SSE 2 6 1 3 1016.4 1015.7 0.0
28/02:00am 14.2 14.3 13.9 98 0.2 S 6 7 3 4 1016.3 1015.6 0.0
28/01:30am 14.3 14.8 14.0 98 0.2 SSE 4 6 2 3 1016.4 1015.7 0.0
28/01:00am 14.7 15.0 14.4 98 0.2 S 6 7 3 4 1016.3 1015.6 0.0
28/12:30am 15.1 15.3 14.8 98 0.2 S 7 9 4 5 1016.1 1015.4 0.0
28/12:00am 15.3 15.5 14.7 96 0.3 S 7 9 4 5 1015.9 1015.2 0.0
 
Date/Time
WST
Temp
°C
App
Temp
°C
Dew
Point
Rel
Hum
%
Delta-T
°C
Wind Press
QNH
hPa
Press
MSL
hPa
Rain
since 9 am
mm
Dir
 
Spd
km/h
Gust
km/h
Spd
kts
Gust
kts
27/11:30pm 15.6 15.8 14.3 92 0.7 S 6 9 3 5 1015.8 1015.1 0.0
27/11:00pm 16.0 16.0 14.2 89 1.0 S 7 13 4 7 1015.6 1014.9 0.0

Other Formats:

Comma delimited format used in spreadsheet applications
http://www.bom.gov.au/fwo/IDW60801/IDW60801.95632.axf

JavaScript Object Notation format (JSON) in row-major order
http://www.bom.gov.au/fwo/IDW60801/IDW60801.95632.json